createdAt,value
2018-10-16T00:02:00.925Z,99.90
2018-10-16T00:04:29.576Z,99.90
2018-10-16T00:06:57.223Z,99.90
2018-10-16T00:09:24.823Z,99.90
2018-10-16T00:11:59.734Z,99.90
2018-10-16T00:14:38.971Z,99.90
2018-10-16T00:17:06.595Z,99.90
2018-10-16T00:19:34.509Z,99.90
2018-10-16T00:22:02.552Z,99.90
2018-10-16T00:24:30.158Z,99.90
2018-10-16T00:26:57.771Z,99.90
2018-10-16T00:29:25.399Z,99.90
2018-10-16T00:31:53.027Z,99.90
2018-10-16T00:34:20.665Z,99.90
2018-10-16T00:36:48.295Z,99.90
2018-10-16T00:39:16.801Z,99.90
2018-10-16T00:41:48.767Z,99.90
2018-10-16T00:44:16.367Z,99.90
2018-10-16T00:46:44.030Z,99.90
2018-10-16T00:49:11.674Z,99.90
2018-10-16T00:51:40.276Z,99.90
2018-10-16T00:54:08.410Z,99.90
2018-10-16T00:56:36.107Z,99.90
2018-10-16T00:59:03.784Z,99.90
2018-10-16T01:01:34.349Z,99.90
2018-10-16T01:04:03.934Z,99.90
2018-10-16T01:06:32.488Z,99.90
2018-10-16T01:09:00.194Z,99.90
2018-10-16T01:11:27.852Z,99.90
2018-10-16T01:13:56.856Z,99.90
2018-10-16T01:16:24.501Z,99.90
2018-10-16T01:18:52.295Z,99.90
2018-10-16T01:21:20.369Z,99.90
2018-10-16T01:23:48.003Z,99.90
2018-10-16T01:26:15.635Z,99.90
2018-10-16T01:28:43.356Z,99.90
2018-10-16T01:31:10.905Z,99.90
2018-10-16T01:33:39.450Z,99.90
2018-10-16T01:36:07.503Z,99.90
2018-10-16T01:38:35.161Z,99.90
2018-10-16T01:41:02.742Z,99.90
2018-10-16T01:43:30.464Z,99.90
2018-10-16T01:45:58.093Z,99.90
2018-10-16T01:48:26.206Z,99.90
2018-10-16T01:50:53.801Z,99.90
2018-10-16T01:53:21.398Z,99.90
2018-10-16T01:55:51.056Z,99.90
2018-10-16T01:58:18.962Z,99.90
2018-10-16T02:00:46.587Z,99.90
2018-10-16T02:03:14.175Z,99.90
2018-10-16T02:05:41.795Z,99.90
2018-10-16T02:08:09.472Z,99.90
2018-10-16T02:10:37.447Z,99.90
2018-10-16T02:13:05.137Z,99.90
2018-10-16T02:15:32.706Z,99.90
2018-10-16T02:18:00.360Z,99.90
2018-10-16T02:20:27.925Z,99.90
2018-10-16T02:22:55.432Z,99.90
2018-10-16T02:25:23.107Z,99.90
2018-10-16T02:27:50.745Z,99.90
2018-10-16T02:30:18.419Z,99.90
2018-10-16T02:32:46.047Z,99.90
2018-10-16T02:35:13.637Z,99.90
2018-10-16T02:37:41.261Z,99.90
2018-10-16T02:40:09.442Z,99.90
2018-10-16T02:42:37.462Z,99.90
2018-10-16T02:45:05.393Z,99.90
2018-10-16T02:47:32.953Z,99.90
2018-10-16T02:50:00.602Z,99.90
2018-10-16T02:52:28.249Z,99.90
2018-10-16T02:54:55.829Z,99.90
2018-10-16T02:57:23.497Z,99.90
2018-10-16T02:59:51.113Z,99.90
2018-10-16T03:02:18.721Z,99.90
2018-10-16T03:04:46.281Z,99.90
2018-10-16T03:07:13.906Z,99.90
2018-10-16T03:09:41.486Z,99.90
2018-10-16T03:12:09.162Z,99.90
2018-10-16T03:14:36.788Z,99.90
2018-10-16T03:17:04.427Z,99.90
2018-10-16T03:19:32.052Z,99.90
2018-10-16T03:21:59.637Z,99.90
2018-10-16T03:24:27.264Z,99.90
2018-10-16T03:26:54.825Z,99.90
2018-10-16T03:29:22.514Z,99.90
2018-10-16T03:31:50.877Z,99.90
2018-10-16T03:34:18.520Z,99.90
2018-10-16T03:36:46.039Z,99.90
2018-10-16T03:39:13.672Z,99.90
2018-10-16T03:41:41.285Z,99.90
2018-10-16T03:44:10.788Z,99.90
2018-10-16T03:46:38.326Z,99.90
2018-10-16T03:49:06.121Z,99.90
2018-10-16T03:51:33.801Z,99.90
2018-10-16T03:54:01.368Z,99.90
2018-10-16T03:56:29.050Z,99.90
2018-10-16T03:58:56.660Z,99.90
2018-10-16T04:01:25.485Z,99.90
2018-10-16T04:03:53.036Z,99.90
2018-10-16T04:06:21.163Z,99.90
2018-10-16T04:08:49.425Z,99.90
2018-10-16T04:11:17.029Z,99.90
2018-10-16T04:13:44.740Z,99.90
2018-10-16T04:16:12.314Z,99.90
2018-10-16T04:18:40.062Z,99.90
2018-10-16T04:21:08.085Z,99.90
2018-10-16T04:23:35.747Z,99.90
2018-10-16T04:26:03.439Z,99.90
2018-10-16T04:28:31.114Z,99.90
2018-10-16T04:30:58.713Z,99.90
2018-10-16T04:33:26.424Z,99.90
2018-10-16T04:35:56.033Z,99.90
2018-10-16T04:38:23.726Z,99.90
2018-10-16T04:40:51.688Z,99.90
2018-10-16T04:43:19.286Z,99.90
2018-10-16T04:45:46.925Z,99.90
2018-10-16T04:48:14.651Z,99.90
2018-10-16T04:50:42.489Z,99.90
2018-10-16T04:53:11.215Z,99.90
2018-10-16T04:55:42.702Z,99.90
2018-10-16T04:58:10.467Z,99.90
2018-10-16T05:00:38.169Z,99.90
2018-10-16T05:03:06.051Z,99.90
2018-10-16T05:05:33.836Z,99.90
2018-10-16T05:08:01.542Z,99.90
2018-10-16T05:10:29.587Z,99.90
2018-10-16T05:12:57.524Z,99.90
2018-10-16T05:15:27.745Z,99.90
2018-10-16T05:17:56.111Z,99.90
2018-10-16T05:20:24.540Z,99.90
2018-10-16T05:22:53.437Z,99.90
2018-10-16T05:25:21.739Z,99.90
2018-10-16T05:27:50.869Z,99.90
2018-10-16T05:30:19.934Z,99.90
2018-10-16T05:32:49.874Z,99.90
2018-10-16T05:35:18.622Z,99.90
2018-10-16T05:37:46.901Z,99.90
2018-10-16T05:40:15.932Z,99.90
2018-10-16T05:42:46.449Z,99.90
2018-10-16T05:45:15.102Z,99.90
2018-10-16T05:47:45.213Z,99.90
2018-10-16T05:50:20.193Z,99.90
2018-10-16T09:15:53.941Z,99.90
2018-10-16T09:18:22.044Z,95.20
2018-10-16T09:20:50.783Z,94.90
2018-10-16T09:23:19.373Z,94.70
2018-10-16T09:25:51.535Z,94.40
2018-10-16T09:28:21.186Z,93.50
2018-10-16T09:30:51.533Z,93.80
2018-10-16T09:33:21.462Z,93.40
2018-10-16T09:35:49.389Z,93.30
2018-10-16T09:38:19.352Z,93.40
2018-10-16T09:40:51.803Z,93.20
2018-10-16T09:43:19.579Z,92.50
2018-10-16T09:45:47.262Z,92.80
2018-10-16T09:48:15.994Z,92.40
2018-10-16T09:50:43.697Z,92.50
2018-10-16T09:56:11.943Z,92.10
2018-10-16T09:58:56.811Z,91.80
2018-10-16T10:01:31.733Z,91.80
2018-10-16T10:17:39.815Z,91.10
2018-10-16T10:20:07.669Z,88.40
2018-10-16T10:22:35.331Z,88.00
2018-10-16T10:25:03.032Z,87.60
2018-10-16T10:27:30.791Z,85.60
2018-10-16T10:29:58.416Z,85.10
2018-10-16T10:32:26.153Z,85.30
2018-10-16T10:34:53.810Z,83.30
2018-10-16T10:37:22.581Z,81.90
2018-10-16T10:39:50.296Z,81.80
2018-10-16T10:42:18.527Z,80.80
2018-10-16T10:44:47.775Z,80.10
2018-10-16T10:47:17.384Z,80.70
2018-10-16T10:49:45.758Z,80.50
2018-10-16T10:52:13.821Z,79.60
2018-10-16T10:54:41.618Z,78.30
2018-10-16T10:57:09.604Z,78.20
2018-10-16T10:59:41.218Z,77.50
2018-10-16T11:02:10.312Z,76.60
2018-10-16T11:04:38.524Z,76.00
2018-10-16T11:07:07.384Z,75.80
2018-10-16T11:09:36.720Z,77.70
2018-10-16T11:12:04.738Z,77.10
2018-10-16T11:14:33.186Z,77.20
2018-10-16T11:17:03.685Z,76.90
2018-10-16T11:19:32.920Z,76.30
2018-10-16T11:22:01.638Z,75.80
2018-10-16T11:24:29.865Z,75.10
2018-10-16T11:26:58.489Z,74.10
2018-10-16T11:29:34.502Z,74.70
2018-10-16T11:32:03.381Z,74.30
2018-10-16T11:34:33.911Z,74.50
2018-10-16T11:37:01.733Z,73.90
2018-10-16T11:39:29.632Z,73.70
2018-10-16T11:41:57.978Z,73.30
2018-10-16T11:44:26.873Z,73.10
2018-10-16T11:46:54.790Z,73.10
2018-10-16T11:49:22.526Z,72.00
2018-10-16T11:51:50.691Z,70.50
2018-10-16T11:54:24.676Z,69.10
2018-10-16T11:56:56.128Z,67.80
2018-10-16T11:59:25.510Z,67.80
2018-10-16T12:01:53.408Z,68.20
2018-10-16T12:04:21.053Z,68.60
2018-10-16T12:06:49.759Z,70.00
2018-10-16T12:09:17.452Z,71.00
2018-10-16T12:11:46.373Z,71.80
2018-10-16T12:14:15.625Z,71.80
2018-10-16T12:16:50.745Z,73.30
2018-10-16T12:19:36.730Z,72.50
2018-10-16T12:23:45.562Z,72.70
2018-10-16T12:26:12.472Z,73.10
2018-10-16T12:28:43.271Z,73.20
2018-10-16T12:31:10.328Z,74.30
2018-10-16T12:33:37.451Z,75.00
2018-10-16T12:36:07.713Z,74.50
2018-10-16T12:38:35.916Z,76.10
2018-10-16T12:41:03.972Z,74.80
2018-10-16T12:43:33.135Z,74.40
2018-10-16T12:45:59.932Z,75.10
2018-10-16T12:48:27.100Z,75.80
2018-10-16T12:50:54.092Z,76.50
2018-10-16T12:53:21.048Z,77.50
2018-10-16T12:55:47.994Z,77.30
2018-10-16T12:58:16.929Z,78.30
2018-10-16T13:00:44.954Z,78.80
2018-10-16T13:03:11.917Z,78.40
2018-10-16T13:05:38.944Z,79.60
2018-10-16T13:08:06.935Z,79.50
2018-10-16T13:10:33.702Z,79.50
2018-10-16T13:13:00.682Z,79.80
2018-10-16T13:15:27.594Z,80.40
2018-10-16T13:17:54.652Z,81.80
2018-10-16T13:20:21.553Z,81.40
2018-10-16T13:22:49.002Z,81.80
2018-10-16T13:25:27.979Z,82.30
2018-10-16T13:27:56.488Z,81.70
2018-10-16T13:30:28.923Z,82.20
2018-10-16T13:32:55.824Z,83.30
2018-10-16T13:35:23.994Z,83.10
2018-10-16T13:37:50.920Z,84.00
2018-10-16T13:40:22.507Z,83.70
2018-10-16T13:42:51.532Z,84.00
2018-10-16T13:45:32.512Z,84.90
2018-10-16T13:48:02.281Z,84.30
2018-10-16T13:50:34.786Z,84.70
2018-10-16T13:53:05.585Z,85.60
2018-10-16T13:58:25.259Z,87.50
2018-10-16T14:00:56.315Z,86.80
2018-10-16T14:03:24.740Z,87.20
2018-10-16T14:05:53.033Z,87.40
2018-10-16T14:08:35.833Z,89.30
2018-10-16T14:13:45.475Z,87.30
2018-10-16T14:16:12.976Z,87.20
2018-10-16T14:18:42.708Z,87.30
2018-10-16T14:21:11.801Z,87.70
2018-10-16T14:26:28.686Z,88.40
2018-10-16T14:28:55.934Z,89.20
2018-10-16T14:31:23.396Z,89.30
2018-10-16T14:33:50.799Z,89.50
2018-10-16T14:36:18.000Z,89.50
2018-10-16T14:38:45.927Z,90.00
2018-10-16T14:41:13.988Z,90.00
2018-10-16T14:43:41.317Z,90.00
2018-10-16T14:46:12.381Z,90.00
2018-10-16T14:48:39.635Z,90.00
2018-10-16T14:51:06.568Z,90.70
2018-10-16T14:53:33.522Z,91.80
2018-10-16T14:56:00.556Z,91.70
2018-10-16T14:58:27.450Z,91.40
2018-10-16T15:00:54.362Z,91.30
2018-10-16T15:03:21.369Z,91.30
2018-10-16T15:05:48.381Z,91.40
2018-10-16T15:08:15.371Z,91.80
2018-10-16T15:10:42.442Z,91.50
2018-10-16T15:13:09.474Z,91.70
2018-10-16T15:15:36.423Z,91.40
2018-10-16T15:18:03.400Z,91.80
2018-10-16T15:20:30.463Z,92.30
2018-10-16T15:22:58.407Z,92.50
2018-10-16T15:25:26.386Z,93.10
2018-10-16T15:27:53.446Z,93.80
2018-10-16T15:30:20.775Z,93.50
2018-10-16T15:32:47.679Z,94.10
2018-10-16T15:35:14.569Z,94.00
2018-10-16T15:37:41.491Z,93.80
2018-10-16T15:40:09.654Z,93.80
2018-10-16T15:42:36.702Z,94.10
2018-10-16T15:45:09.135Z,94.20
2018-10-16T15:47:41.004Z,94.60
2018-10-16T15:50:08.408Z,94.70
2018-10-16T15:52:35.346Z,94.90
2018-10-16T15:55:02.321Z,95.20
2018-10-16T15:57:29.246Z,95.30
2018-10-16T15:59:56.292Z,95.50
2018-10-16T16:02:23.232Z,96.20
2018-10-16T16:04:50.243Z,96.30
2018-10-16T16:07:17.288Z,96.00
2018-10-16T16:09:44.375Z,96.10
2018-10-16T16:12:11.782Z,96.40
2018-10-16T16:14:39.213Z,96.80
2018-10-16T16:17:06.234Z,97.00
2018-10-16T16:19:34.253Z,97.30
2018-10-16T16:22:01.424Z,97.30
2018-10-16T16:24:28.700Z,97.50
2018-10-16T16:26:55.783Z,98.00
2018-10-16T16:29:22.970Z,98.20
2018-10-16T16:31:50.117Z,97.90
2018-10-16T16:34:17.853Z,98.10
2018-10-16T16:36:45.661Z,98.00
2018-10-16T16:39:13.894Z,98.20
2018-10-16T16:41:43.349Z,98.50
2018-10-16T16:44:10.924Z,98.30
2018-10-16T16:46:39.687Z,98.00
2018-10-16T16:49:11.492Z,98.70
2018-10-16T16:51:41.891Z,98.90
2018-10-16T16:54:12.104Z,99.30
2018-10-16T16:56:44.171Z,99.20
2018-10-16T16:59:19.211Z,99.00
2018-10-16T17:01:50.371Z,99.00
2018-10-16T17:04:19.598Z,99.20
2018-10-16T17:14:08.177Z,99.60
2018-10-16T17:16:39.777Z,99.80
2018-10-16T17:19:09.514Z,99.60
2018-10-16T17:21:40.486Z,99.80
2018-10-16T17:24:08.404Z,99.70
2018-10-16T17:26:37.865Z,99.90
2018-10-16T17:29:08.245Z,99.90
2018-10-16T17:31:41.657Z,99.90
2018-10-16T17:34:20.045Z,99.90
2018-10-16T18:45:43.754Z,99.90
2018-10-16T18:48:10.983Z,99.90
2018-10-16T18:50:38.089Z,99.90
2018-10-16T18:53:05.185Z,99.90
2018-10-16T18:55:32.341Z,99.90
2018-10-16T18:57:59.533Z,99.90
2018-10-16T19:00:26.540Z,99.90
2018-10-16T19:02:53.661Z,99.90
2018-10-16T19:05:20.671Z,99.90
2018-10-16T19:07:47.781Z,99.90
2018-10-16T19:10:16.851Z,99.90
2018-10-16T19:12:43.840Z,99.90
2018-10-16T19:15:12.847Z,99.90
2018-10-16T19:17:40.978Z,99.90
2018-10-16T19:20:10.182Z,99.90
2018-10-16T19:22:37.502Z,99.90
2018-10-16T19:25:05.310Z,99.90
2018-10-16T19:27:33.799Z,99.90
2018-10-16T19:30:00.839Z,99.90
2018-10-16T19:32:27.985Z,99.90
2018-10-16T19:34:57.092Z,99.90
2018-10-16T19:37:24.102Z,99.90
2018-10-16T19:39:55.887Z,99.90
2018-10-16T19:42:22.907Z,99.90
2018-10-16T19:44:49.885Z,99.90
2018-10-16T19:47:17.177Z,99.90
2018-10-16T19:49:44.716Z,99.90
2018-10-16T19:52:11.778Z,99.90
2018-10-16T19:54:38.777Z,99.90
2018-10-16T19:57:05.871Z,99.90
2018-10-16T19:59:33.405Z,99.90
2018-10-16T20:02:00.532Z,99.90
2018-10-16T20:04:27.471Z,99.90
2018-10-16T20:06:54.420Z,99.90
2018-10-16T20:09:21.408Z,99.90
2018-10-16T20:11:49.499Z,99.90
2018-10-16T20:14:16.572Z,99.90
2018-10-16T20:16:43.404Z,99.90
2018-10-16T20:19:10.358Z,99.90
2018-10-16T20:21:37.375Z,99.90
2018-10-16T20:24:12.016Z,99.90
2018-10-16T20:26:42.101Z,99.90
2018-10-16T20:29:09.111Z,99.90
2018-10-16T20:31:36.251Z,99.90
2018-10-16T20:34:07.574Z,99.90
2018-10-16T20:36:34.799Z,99.90
2018-10-16T20:39:01.769Z,99.90
2018-10-16T20:41:29.307Z,99.90
2018-10-16T20:43:56.176Z,99.90
2018-10-16T20:46:23.193Z,99.90
2018-10-16T20:48:50.158Z,99.90
2018-10-16T20:51:17.131Z,99.90
2018-10-16T20:53:44.135Z,99.90
2018-10-16T20:56:11.052Z,99.90
2018-10-16T20:58:38.123Z,99.90
2018-10-16T21:01:12.935Z,99.90
2018-10-16T21:03:42.187Z,99.90
2018-10-16T21:06:11.827Z,99.90
2018-10-16T21:08:45.601Z,99.90
2018-10-16T21:11:13.033Z,99.90
2018-10-16T21:13:40.443Z,99.90
2018-10-16T21:16:08.055Z,99.90
2018-10-16T21:18:43.748Z,99.90
2018-10-16T21:21:27.954Z,99.90
2018-10-16T21:23:56.757Z,99.90
2018-10-16T21:32:51.950Z,99.90
2018-10-16T21:44:50.229Z,99.90
2018-10-16T21:47:31.124Z,99.90
2018-10-16T22:03:38.873Z,99.90
2018-10-16T22:06:11.188Z,99.90
2018-10-16T22:08:39.285Z,99.90
2018-10-16T22:11:07.036Z,99.90
2018-10-16T22:13:36.458Z,99.90
2018-10-16T22:16:09.870Z,99.90
2018-10-16T22:18:51.711Z,99.90
2018-10-16T22:21:26.563Z,99.90
2018-10-16T22:26:54.024Z,99.90
2018-10-16T22:29:22.132Z,99.90
2018-10-16T22:31:54.942Z,99.90
2018-10-16T22:34:48.332Z,99.90
2018-10-16T22:37:23.460Z,99.90
2018-10-16T22:39:53.293Z,99.90
2018-10-16T22:42:24.017Z,99.90
2018-10-16T22:44:55.873Z,99.90
2018-10-16T22:51:57.401Z,99.90
2018-10-16T22:54:31.002Z,99.90
2018-10-16T22:56:58.767Z,99.90
2018-10-16T22:59:28.777Z,99.90
2018-10-16T23:02:51.379Z,99.90
2018-10-16T23:05:19.377Z,99.90
2018-10-16T23:07:47.635Z,99.90
2018-10-16T23:10:20.824Z,99.90
2018-10-16T23:13:04.791Z,99.90
2018-10-16T23:15:32.726Z,99.90
2018-10-16T23:18:07.065Z,99.90
2018-10-16T23:20:50.115Z,99.90
2018-10-16T23:23:18.259Z,99.90
2018-10-16T23:25:46.701Z,99.90
2018-10-16T23:28:22.062Z,99.90
2018-10-16T23:30:52.173Z,99.90
2018-10-16T23:33:20.005Z,99.90
2018-10-16T23:35:47.879Z,99.90
2018-10-16T23:38:15.742Z,99.90
2018-10-16T23:40:43.772Z,99.90
2018-10-16T23:43:11.926Z,99.90
2018-10-16T23:45:39.863Z,99.90
2018-10-16T23:48:09.749Z,99.90
2018-10-16T23:50:41.288Z,99.90
2018-10-16T23:53:13.445Z,99.90
2018-10-16T23:55:41.449Z,99.90
2018-10-16T23:58:09.200Z,99.90
